Nieuw Amsterdam — PBWQ — position and weather

sailwx.info

Track history (hours):
 
Tides and Currents Weather Stations Pressure Air Temp Water Temp Dewpoint Dewpoint Depression Visibility Wind Speed Wind Dir Waves Ship Positions

Nieuw Amsterdam

Last reported at 2017-Aug-16 23:41 UTC. Time now 2017-Aug-17 01:55 UTC.
Position N 58°19' W 136°10'.

Length 285 m; draft 8 m.

Type: Passenger vessel. MMSI: 246648000.

Date/timePositionNaut miles runAvg speedWind from/ knotsBaromVisibWave heightAir tempDewpointWater temp
2017-Aug-16 23:41N 58°19' W 136°10'319.0
2017-Aug-16 23:30N 58°20' W 136°04'713.8
2017-Aug-16 23:00N 58°27' W 136°00'715.0
2017-Aug-16 22:30N 58°34' W 136°04'816.6
2017-Aug-16 22:00N 58°41' W 136°12'6464.7
2017-Aug-16 22:00N 58°36' W 136°06'10 1.5 170 / 51007.3 0.3 9.6 9.013.0
2017-Aug-16 15:37N 58°44' W 136°17'316.0
2017-Aug-16 15:28N 58°42' W 136°13'715.8
2017-Aug-16 15:00N 58°37' W 136°05'816.2
2017-Aug-16 14:31N 58°29' W 136°03'612.5
2017-Aug-16 14:00N 58°23' W 135°58'510.4
2017-Aug-16 13:30N 58°19' W 135°52'611.8
2017-Aug-16 13:00N 58°17' W 135°41'812.0
2017-Aug-16 12:19N 58°14' W 135°26'515.1
2017-Aug-16 12:00N 58°12' W 135°18'1 5.7 320 / 51002.810.8 11.911.313.8
2017-Aug-16 11:51N 58°12' W 135°17'6 3.4
2017-Aug-16 10:00N 58°18' W 135°12'3015.0 360 / 131002.810.8 11.811.014.6
2017-Aug-16 08:00N 58°48' W 135°12'1212.0 310 / 51002.810.8 11.810.513.0
2017-Aug-16 07:00N 59°00' W 135°12'1212.4 020 / 31002.310.8 11.0 7.913.4
2017-Aug-16 06:00N 59°12' W 135°18'50 2.4 170 / 61002.210.8 11.610.012.5
2017-Aug-15 09:00N 58°24' W 134°48'2211.2 170 / 41010.810.8 12.111.514.7
2017-Aug-15 07:00N 58°12' W 134°12'150 7.9 130 / 71011.510.8 11.810.212.6
2017-Aug-14 12:00N 55°42' W 134°24'1919.2 230 / 181010.510.8 12.510.618.3
2017-Aug-14 11:00N 55°24' W 134°12'4120.3 210 / 201011.0 5.4 12.410.317.0
2017-Aug-14 09:00N 54°54' W 133°24'3919.7 230 / 181012.0 5.4 12.910.616.6
2017-Aug-14 07:00N 54°30' W 132°30'2221.8 200 / 201012.8 5.4 12.811.016.6
2017-Aug-14 06:00N 54°24' W 131°54'2525.2 210 / 201013.1 5.4 12.710.816.6
2017-Aug-14 05:00N 54°18' W 131°12'7 7.0 250 / 141013.9 5.4 12.610.517.1
2017-Aug-14 04:00N 54°18' W 131°00'1818.3 210 / 101013.9 5.4 14.011.917.3
2017-Aug-14 03:00N 54°00' W 130°54'10221.3 210 / 81013.6 5.4 13.312.016.9
2017-Aug-13 22:13N 52°43' W 129°03'938.7
2017-Aug-13 22:00N 52°36' W 128°54'3 8.4 210 / 201013.9 5.4 15.411.417.7
2017-Aug-13 21:41N 52°33' W 128°53'521.0
2017-Aug-13 21:26N 52°28' W 128°52'920.8
2017-Aug-13 21:00N 52°20' W 128°49'1020.5
2017-Aug-13 20:30N 52°09' W 128°46'1020.7
2017-Aug-13 20:00N 51°59' W 128°43'1020.1
2017-Aug-13 19:30N 51°50' W 128°38'1019.6
2017-Aug-13 19:00N 51°40' W 128°33'1020.0
2017-Aug-13 18:30N 51°30' W 128°33'1019.7
2017-Aug-13 18:00N 51°21' W 128°33'918.6
2017-Aug-13 17:30N 51°14' W 128°22'1020.3
2017-Aug-13 17:00N 51°08' W 128°09'1020.8
2017-Aug-13 16:30N 51°02' W 127°55'1121.8
2017-Aug-13 16:00N 50°56' W 127°41'4275.7
2017-Aug-13 16:00N 50°54' W 127°36'714.9 260 / 171013.810.8 15.714.614.9
2017-Aug-13 15:30N 50°50' W 127°27'1121.1
2017-Aug-13 15:00N 50°46' W 127°11'1120.7
2017-Aug-13 14:29N 50°42' W 126°55'920.1
2017-Aug-13 14:00N 50°36' W 126°44'915.9
2017-Aug-13 13:27N 50°30' W 126°33'3019.5
2017-Aug-13 11:53N 50°23' W 125°47'919.7
2017-Aug-13 11:26N 50°22' W 125°33'614.6
2017-Aug-13 11:00N 50°18' W 125°25'136.4
2017-Aug-13 11:00N 50°18' W 125°24'1019.6 140 / 71009.610.8 15.714.614.9
2017-Aug-13 10:30N 50°09' W 125°21'611.8
2017-Aug-13 10:00N 50°04' W 125°15'612.1
2017-Aug-13 09:30N 49°59' W 125°11'510.1
2017-Aug-13 09:00N 49°55' W 125°05'5 9.8
2017-Aug-13 08:31N 49°52' W 125°00'5 9.7
2017-Aug-13 08:01N 49°48' W 124°55'135.9
2017-Aug-13 08:00N 49°48' W 124°54'4 9.1 120 / 181009.410.8 16.814.416.9
2017-Aug-13 07:30N 49°45' W 124°49'510.4
2017-Aug-13 07:01N 49°41' W 124°44'5305.5
2017-Aug-13 07:00N 49°36' W 124°42'2 4.7 130 / 121009.5 5.4 16.915.118.4
2017-Aug-13 06:31N 49°37' W 124°39'5 9.7
2017-Aug-13 06:00N 49°33' W 124°34'4360.7
2017-Aug-13 06:00N 49°30' W 124°30'1 2.0 180 / 81009.6 5.4 16.715.116.9
2017-Aug-13 05:31N 49°30' W 124°29'510.7
2017-Aug-13 05:01N 49°26' W 124°22'3161.7
2017-Aug-13 05:00N 49°24' W 124°24'613.4 110 / 101009.5 5.4 17.115.118.8
2017-Aug-13 04:31N 49°25' W 124°14'510.3
2017-Aug-13 04:01N 49°24' W 124°06'023.8
2017-Aug-13 04:00N 49°24' W 124°06'5 9.9 160 / 101009.8 5.4 17.115.418.5
2017-Aug-13 03:30N 49°23' W 123°59'510.0
2017-Aug-13 03:01N 49°22' W 123°51'510.3
2017-Aug-13 02:30N 49°21' W 123°43'510.6
2017-Aug-13 02:00N 49°20' W 123°35'510.4
2017-Aug-13 01:31N 49°19' W 123°28'510.0
2017-Aug-13 01:00N 49°19' W 123°20'510.2
2017-Aug-13 00:30N 49°19' W 123°12'4 8.0
2017-Aug-13 00:00N 49°18' W 123°06'0 0.9
2017-Aug-12 23:29N 49°17' W 123°07'0 0.0
2017-Aug-12 22:59N 49°17' W 123°07'0 0.0
2017-Aug-12 22:28N 49°17' W 123°07'0 0.0
2017-Aug-12 22:00N 49°17' W 123°07'0 0.0
2017-Aug-12 21:30N 49°17' W 123°07'0 0.0
2017-Aug-12 20:59N 49°17' W 123°07'0 0.0
2017-Aug-12 20:30N 49°17' W 123°07'0 0.0
2017-Aug-12 19:59N 49°17' W 123°07'0 0.0
2017-Aug-12 19:29N 49°17' W 123°07'0 0.0
2017-Aug-12 18:58N 49°17' W 123°07'0 0.0
2017-Aug-12 18:22N 49°17' W 123°07'0 0.0
2017-Aug-12 18:00N 49°17' W 123°07'0 0.0
2017-Aug-12 17:30N 49°17' W 123°07'0 0.0
2017-Aug-12 17:00N 49°17' W 123°07'0 0.0
2017-Aug-12 16:29N 49°17' W 123°07'0 0.0
2017-Aug-12 15:58N 49°17' W 123°07'0 0.0
2017-Aug-12 15:28N 49°17' W 123°07'0 0.0
2017-Aug-12 14:56N 49°17' W 123°07'0 0.0
2017-Aug-12 14:28N 49°17' W 123°07'0 0.0
2017-Aug-12 14:00N 49°17' W 123°07'2 3.1
2017-Aug-12 13:30N 49°19' W 123°08'510.0
2017-Aug-12 13:00N 49°18' W 123°16'510.8
2017-Aug-12 12:30N 49°19' W 123°24'510.6
2017-Aug-12 12:00N 49°20' W 123°32'510.7
2017-Aug-12 11:30N 49°20' W 123°40'510.2
2017-Aug-12 11:00N 49°21' W 123°48'5 9.5
2017-Aug-12 10:30N 49°22' W 123°55'5 9.6
2017-Aug-12 10:00N 49°23' W 124°02'5320.6
2017-Aug-12 10:00N 49°18' W 124°00'917.1 140 / 151010.2 5.4 18.715.919.7
2017-Aug-12 09:28N 49°24' W 124°10'510.2
2017-Aug-12 09:00N 49°25' W 124°17'510.2
2017-Aug-12 08:30N 49°27' W 124°24'5 9.9
2017-Aug-12 08:00N 49°31' W 124°30'133.3
2017-Aug-12 08:00N 49°30' W 124°30'511.2 1009.7 5.4 20.017.619.7
2017-Aug-12 07:30N 49°34' W 124°35'510.0
2017-Aug-12 07:00N 49°38' W 124°41'510.3
2017-Aug-12 06:30N 49°42' W 124°46'510.3
2017-Aug-12 06:00N 49°45' W 124°51'510.3
2017-Aug-12 05:30N 49°49' W 124°58'510.3
2017-Aug-12 05:00N 49°52' W 125°03'611.8
2017-Aug-12 04:31N 49°57' W 125°09'714.0
2017-Aug-12 04:00N 50°03' W 125°14'713.9
2017-Aug-12 03:30N 50°08' W 125°21'712.8
2017-Aug-12 02:59N 50°15' W 125°23'511.1
2017-Aug-12 02:30N 50°20' W 125°26'712.8
2017-Aug-12 01:58N 50°22' W 125°36'713.8
2017-Aug-12 01:29N 50°22' W 125°46'1816.2
2017-Aug-12 00:24N 50°29' W 126°12'1617.9
2017-Aug-11 23:31N 50°31' W 126°36'1 5.3
2017-Aug-11 23:25N 50°31' W 126°37'712.9
2017-Aug-11 22:55N 50°36' W 126°44'916.5
2017-Aug-11 22:23N 50°42' W 126°55'3 8.7
2017-Aug-11 22:00N 50°42' W 127°00'4139.8 270 / 81013.7 5.4 13.711.715.5
2017-Aug-11 21:58N 50°44' W 127°05'816.5
2017-Aug-11 21:30N 50°47' W 127°16'816.3
2017-Aug-11 21:00N 50°50' W 127°27'3221.4
2017-Aug-11 21:00N 50°48' W 127°24'1123.1 280 / 51013.9 5.4 13.411.615.2
2017-Aug-11 20:30N 50°54' W 127°39'815.9
2017-Aug-11 20:00N 50°59' W 127°49'713.4
2017-Aug-11 19:30N 51°03' W 127°57'714.5
2017-Aug-11 19:00N 51°07' W 128°07'713.8
2017-Aug-11 18:31N 51°11' W 128°16'713.9
2017-Aug-11 18:01N 51°15' W 128°25'714.0
2017-Aug-11 17:30N 51°19' W 128°34'714.4
2017-Aug-11 17:00N 51°25' W 128°41'816.7
2017-Aug-11 16:30N 51°32' W 128°49'917.1
2017-Aug-11 16:00N 51°39' W 128°57'917.4
2017-Aug-11 15:30N 51°45' W 129°06'917.5
2017-Aug-11 15:00N 51°52' W 129°14'1918.9
2017-Aug-11 14:00N 52°08' W 129°33'1019.1
2017-Aug-11 13:30N 52°15' W 129°42'918.8
2017-Aug-11 13:00N 52°23' W 129°51'918.7
2017-Aug-11 12:30N 52°31' W 129°59'918.2
2017-Aug-11 12:00N 52°39' W 130°06'5283.1
2017-Aug-11 12:00N 52°36' W 130°00'1428.1 350 / 151013.5 0.5 11.410.915.8
2017-Aug-11 11:30N 52°47' W 130°13'918.6
2017-Aug-11 11:00N 52°55' W 130°20'917.9
2017-Aug-11 10:30N 53°03' W 130°27'918.3
2017-Aug-11 10:00N 53°11' W 130°34'1218.1
2017-Aug-11 09:22N 53°22' W 130°44'2115.5
2017-Aug-11 08:00N 53°42' W 130°54'178 8.5 330 / 131013.810.8 12.011.414.3
2017-Aug-10 11:00N 56°18' W 133°24'3517.5 330 / 51015.310.8 12.011.115.7
2017-Aug-10 09:00N 56°00' W 134°18'15217.5 300 / 191014.810.8 12.711.415.6
2017-Aug-10 00:15N 58°18' W 136°17'519.1
2017-Aug-10 00:00N 58°19' W 136°09'815.2
2017-Aug-09 23:30N 58°25' W 135°60'612.6
2017-Aug-09 23:00N 58°31' W 136°04'2156.4
2017-Aug-09 23:00N 58°30' W 136°00'1122.2 1016.610.8 15.7 8.213.3
2017-Aug-09 22:30N 58°40' W 136°09'510.0
2017-Aug-09 22:00N 58°42' W 136°18'1316.9 1017.010.8 14.2 8.814.0
2017-Aug-09 21:14N 58°51' W 136°35'311.9
2017-Aug-09 21:00N 58°48' W 136°36'4 0.8 310 / 51017.110.8 15.7 4.111.2
2017-Aug-09 16:19N 58°50' W 136°30'612.9
2017-Aug-09 15:52N 58°46' W 136°21'513.9
2017-Aug-09 15:30N 58°43' W 136°14'917.9
2017-Aug-09 15:00N 58°35' W 136°04'2147.2
2017-Aug-09 15:00N 58°36' W 136°00'817.1 340 / 51017.910.8 10.3 9.514.5
2017-Aug-09 14:30N 58°28' W 136°02'510.1
2017-Aug-09 14:00N 58°23' W 135°57'510.1
2017-Aug-09 13:28N 58°19' W 135°52'612.7
2017-Aug-09 13:00N 58°17' W 135°41'1313.1
2017-Aug-09 12:00N 58°12' W 135°18'1312.6 320 / 131017.210.8 12.710.914.5
2017-Aug-09 11:00N 58°12' W 134°54'1212.4 130 / 131017.410.8 13.2 9.816.0
2017-Aug-09 10:00N 58°24' W 135°00'1212.4 330 / 71017.510.8 13.912.116.4
2017-Aug-09 09:00N 58°36' W 135°06'12 0.5 060 / 121018.010.8 14.211.516.5
2017-Aug-08 11:00N 58°48' W 135°06'2612.9 170 / 121022.410.8 14.312.517.0
2017-Aug-08 09:00N 58°24' W 134°48'91 4.8 180 / 81021.810.8 15.412.315.9
2017-Aug-07 14:00N 56°54' W 134°18'3015.1 130 / 51019.410.8 12.311.015.3
2017-Aug-07 12:00N 56°24' W 134°24'1212.0 130 / 61018.810.8 12.211.115.3
2017-Aug-07 11:00N 56°12' W 134°24'3618.1 350 / 101018.610.8 12.511.715.3
2017-Aug-07 09:00N 55°36' W 134°18'   280 / 201019.310.8 12.411.515.3
Track history (hours):
 
Tides and Currents Weather Stations Pressure Air Temp Water Temp Dewpoint Dewpoint Depression Visibility Wind Speed Wind Dir Waves Ship Positions

Nieuw Amsterdam

Last reported at 2017-Aug-16 23:41 UTC. Time now 2017-Aug-17 01:55 UTC.
Position N 58°19' W 136°10'.

Length 285 m; draft 8 m.

Type: Passenger vessel. MMSI: 246648000.

Date/timePositionNaut miles runAvg speedWind from/ knotsBaromVisibWave heightAir tempDewpointWater temp
2017-Aug-16 23:41N 58°19' W 136°10'319.0
2017-Aug-16 23:30N 58°20' W 136°04'713.8
2017-Aug-16 23:00N 58°27' W 136°00'715.0
2017-Aug-16 22:30N 58°34' W 136°04'816.6
2017-Aug-16 22:00N 58°41' W 136°12'6464.7
2017-Aug-16 22:00N 58°36' W 136°06'10 1.5 170 / 51007.3 0.3 9.6 9.013.0
2017-Aug-16 15:37N 58°44' W 136°17'316.0
2017-Aug-16 15:28N 58°42' W 136°13'715.8
2017-Aug-16 15:00N 58°37' W 136°05'816.2
2017-Aug-16 14:31N 58°29' W 136°03'612.5
2017-Aug-16 14:00N 58°23' W 135°58'510.4
2017-Aug-16 13:30N 58°19' W 135°52'611.8
2017-Aug-16 13:00N 58°17' W 135°41'812.0
2017-Aug-16 12:19N 58°14' W 135°26'515.1
2017-Aug-16 12:00N 58°12' W 135°18'1 5.7 320 / 51002.810.8 11.911.313.8
2017-Aug-16 11:51N 58°12' W 135°17'6 3.4
2017-Aug-16 10:00N 58°18' W 135°12'3015.0 360 / 131002.810.8 11.811.014.6
2017-Aug-16 08:00N 58°48' W 135°12'1212.0 310 / 51002.810.8 11.810.513.0
2017-Aug-16 07:00N 59°00' W 135°12'1212.4 020 / 31002.310.8 11.0 7.913.4
2017-Aug-16 06:00N 59°12' W 135°18'50 2.4 170 / 61002.210.8 11.610.012.5
2017-Aug-15 09:00N 58°24' W 134°48'2211.2 170 / 41010.810.8 12.111.514.7
2017-Aug-15 07:00N 58°12' W 134°12'150 7.9 130 / 71011.510.8 11.810.212.6
2017-Aug-14 12:00N 55°42' W 134°24'1919.2 230 / 181010.510.8 12.510.618.3
2017-Aug-14 11:00N 55°24' W 134°12'4120.3 210 / 201011.0 5.4 12.410.317.0
2017-Aug-14 09:00N 54°54' W 133°24'3919.7 230 / 181012.0 5.4 12.910.616.6
2017-Aug-14 07:00N 54°30' W 132°30'2221.8 200 / 201012.8 5.4 12.811.016.6
2017-Aug-14 06:00N 54°24' W 131°54'2525.2 210 / 201013.1 5.4 12.710.816.6
2017-Aug-14 05:00N 54°18' W 131°12'7 7.0 250 / 141013.9 5.4 12.610.517.1
2017-Aug-14 04:00N 54°18' W 131°00'1818.3 210 / 101013.9 5.4 14.011.917.3
2017-Aug-14 03:00N 54°00' W 130°54'10221.3 210 / 81013.6 5.4 13.312.016.9
2017-Aug-13 22:13N 52°43' W 129°03'938.7
2017-Aug-13 22:00N 52°36' W 128°54'3 8.4 210 / 201013.9 5.4 15.411.417.7
2017-Aug-13 21:41N 52°33' W 128°53'521.0
2017-Aug-13 21:26N 52°28' W 128°52'920.8
2017-Aug-13 21:00N 52°20' W 128°49'1020.5
2017-Aug-13 20:30N 52°09' W 128°46'1020.7
2017-Aug-13 20:00N 51°59' W 128°43'1020.1
2017-Aug-13 19:30N 51°50' W 128°38'1019.6
2017-Aug-13 19:00N 51°40' W 128°33'1020.0
2017-Aug-13 18:30N 51°30' W 128°33'1019.7
2017-Aug-13 18:00N 51°21' W 128°33'918.6
2017-Aug-13 17:30N 51°14' W 128°22'1020.3
2017-Aug-13 17:00N 51°08' W 128°09'1020.8
2017-Aug-13 16:30N 51°02' W 127°55'1121.8
2017-Aug-13 16:00N 50°56' W 127°41'4275.7
2017-Aug-13 16:00N 50°54' W 127°36'714.9 260 / 171013.810.8 15.714.614.9
2017-Aug-13 15:30N 50°50' W 127°27'1121.1
2017-Aug-13 15:00N 50°46' W 127°11'1120.7
2017-Aug-13 14:29N 50°42' W 126°55'920.1
2017-Aug-13 14:00N 50°36' W 126°44'915.9
2017-Aug-13 13:27N 50°30' W 126°33'3019.5
2017-Aug-13 11:53N 50°23' W 125°47'919.7
2017-Aug-13 11:26N 50°22' W 125°33'614.6
2017-Aug-13 11:00N 50°18' W 125°25'136.4
2017-Aug-13 11:00N 50°18' W 125°24'1019.6 140 / 71009.610.8 15.714.614.9
2017-Aug-13 10:30N 50°09' W 125°21'611.8
2017-Aug-13 10:00N 50°04' W 125°15'612.1
2017-Aug-13 09:30N 49°59' W 125°11'510.1
2017-Aug-13 09:00N 49°55' W 125°05'5 9.8
2017-Aug-13 08:31N 49°52' W 125°00'5 9.7
2017-Aug-13 08:01N 49°48' W 124°55'135.9
2017-Aug-13 08:00N 49°48' W 124°54'4 9.1 120 / 181009.410.8 16.814.416.9
2017-Aug-13 07:30N 49°45' W 124°49'510.4
2017-Aug-13 07:01N 49°41' W 124°44'5305.5
2017-Aug-13 07:00N 49°36' W 124°42'2 4.7 130 / 121009.5 5.4 16.915.118.4
2017-Aug-13 06:31N 49°37' W 124°39'5 9.7
2017-Aug-13 06:00N 49°33' W 124°34'4360.7
2017-Aug-13 06:00N 49°30' W 124°30'1 2.0 180 / 81009.6 5.4 16.715.116.9
2017-Aug-13 05:31N 49°30' W 124°29'510.7
2017-Aug-13 05:01N 49°26' W 124°22'3161.7
2017-Aug-13 05:00N 49°24' W 124°24'613.4 110 / 101009.5 5.4 17.115.118.8
2017-Aug-13 04:31N 49°25' W 124°14'510.3
2017-Aug-13 04:01N 49°24' W 124°06'023.8
2017-Aug-13 04:00N 49°24' W 124°06'5 9.9 160 / 101009.8 5.4 17.115.418.5
2017-Aug-13 03:30N 49°23' W 123°59'510.0
2017-Aug-13 03:01N 49°22' W 123°51'510.3
2017-Aug-13 02:30N 49°21' W 123°43'510.6
2017-Aug-13 02:00N 49°20' W 123°35'510.4
2017-Aug-13 01:31N 49°19' W 123°28'510.0
2017-Aug-13 01:00N 49°19' W 123°20'510.2
2017-Aug-13 00:30N 49°19' W 123°12'4 8.0
2017-Aug-13 00:00N 49°18' W 123°06'0 0.9
2017-Aug-12 23:29N 49°17' W 123°07'0 0.0
2017-Aug-12 22:59N 49°17' W 123°07'0 0.0
2017-Aug-12 22:28N 49°17' W 123°07'0 0.0
2017-Aug-12 22:00N 49°17' W 123°07'0 0.0
2017-Aug-12 21:30N 49°17' W 123°07'0 0.0
2017-Aug-12 20:59N 49°17' W 123°07'0 0.0
2017-Aug-12 20:30N 49°17' W 123°07'0 0.0
2017-Aug-12 19:59N 49°17' W 123°07'0 0.0
2017-Aug-12 19:29N 49°17' W 123°07'0 0.0
2017-Aug-12 18:58N 49°17' W 123°07'0 0.0
2017-Aug-12 18:22N 49°17' W 123°07'0 0.0
2017-Aug-12 18:00N 49°17' W 123°07'0 0.0
2017-Aug-12 17:30N 49°17' W 123°07'0 0.0
2017-Aug-12 17:00N 49°17' W 123°07'0 0.0
2017-Aug-12 16:29N 49°17' W 123°07'0 0.0
2017-Aug-12 15:58N 49°17' W 123°07'0 0.0
2017-Aug-12 15:28N 49°17' W 123°07'0 0.0
2017-Aug-12 14:56N 49°17' W 123°07'0 0.0
2017-Aug-12 14:28N 49°17' W 123°07'0 0.0
2017-Aug-12 14:00N 49°17' W 123°07'2 3.1
2017-Aug-12 13:30N 49°19' W 123°08'510.0
2017-Aug-12 13:00N 49°18' W 123°16'510.8
2017-Aug-12 12:30N 49°19' W 123°24'510.6
2017-Aug-12 12:00N 49°20' W 123°32'510.7
2017-Aug-12 11:30N 49°20' W 123°40'510.2
2017-Aug-12 11:00N 49°21' W 123°48'5 9.5
2017-Aug-12 10:30N 49°22' W 123°55'5 9.6
2017-Aug-12 10:00N 49°23' W 124°02'5320.6
2017-Aug-12 10:00N 49°18' W 124°00'917.1 140 / 151010.2 5.4 18.715.919.7
2017-Aug-12 09:28N 49°24' W 124°10'510.2
2017-Aug-12 09:00N 49°25' W 124°17'510.2
2017-Aug-12 08:30N 49°27' W 124°24'5 9.9
2017-Aug-12 08:00N 49°31' W 124°30'133.3
2017-Aug-12 08:00N 49°30' W 124°30'511.2 1009.7 5.4 20.017.619.7
2017-Aug-12 07:30N 49°34' W 124°35'510.0
2017-Aug-12 07:00N 49°38' W 124°41'510.3
2017-Aug-12 06:30N 49°42' W 124°46'510.3
2017-Aug-12 06:00N 49°45' W 124°51'510.3
2017-Aug-12 05:30N 49°49' W 124°58'510.3
2017-Aug-12 05:00N 49°52' W 125°03'611.8
2017-Aug-12 04:31N 49°57' W 125°09'714.0
2017-Aug-12 04:00N 50°03' W 125°14'713.9
2017-Aug-12 03:30N 50°08' W 125°21'712.8
2017-Aug-12 02:59N 50°15' W 125°23'511.1
2017-Aug-12 02:30N 50°20' W 125°26'712.8
2017-Aug-12 01:58N 50°22' W 125°36'713.8
2017-Aug-12 01:29N 50°22' W 125°46'1816.2
2017-Aug-12 00:24N 50°29' W 126°12'1617.9
2017-Aug-11 23:31N 50°31' W 126°36'1 5.3
2017-Aug-11 23:25N 50°31' W 126°37'712.9
2017-Aug-11 22:55N 50°36' W 126°44'916.5
2017-Aug-11 22:23N 50°42' W 126°55'3 8.7
2017-Aug-11 22:00N 50°42' W 127°00'4139.8 270 / 81013.7 5.4 13.711.715.5
2017-Aug-11 21:58N 50°44' W 127°05'816.5
2017-Aug-11 21:30N 50°47' W 127°16'816.3
2017-Aug-11 21:00N 50°50' W 127°27'3221.4
2017-Aug-11 21:00N 50°48' W 127°24'1123.1 280 / 51013.9 5.4 13.411.615.2
2017-Aug-11 20:30N 50°54' W 127°39'815.9
2017-Aug-11 20:00N 50°59' W 127°49'713.4
2017-Aug-11 19:30N 51°03' W 127°57'714.5
2017-Aug-11 19:00N 51°07' W 128°07'713.8
2017-Aug-11 18:31N 51°11' W 128°16'713.9
2017-Aug-11 18:01N 51°15' W 128°25'714.0
2017-Aug-11 17:30N 51°19' W 128°34'714.4
2017-Aug-11 17:00N 51°25' W 128°41'816.7
2017-Aug-11 16:30N 51°32' W 128°49'917.1
2017-Aug-11 16:00N 51°39' W 128°57'917.4
2017-Aug-11 15:30N 51°45' W 129°06'917.5
2017-Aug-11 15:00N 51°52' W 129°14'1918.9
2017-Aug-11 14:00N 52°08' W 129°33'1019.1
2017-Aug-11 13:30N 52°15' W 129°42'918.8
2017-Aug-11 13:00N 52°23' W 129°51'918.7
2017-Aug-11 12:30N 52°31' W 129°59'918.2
2017-Aug-11 12:00N 52°39' W 130°06'5283.1
2017-Aug-11 12:00N 52°36' W 130°00'1428.1 350 / 151013.5 0.5 11.410.915.8
2017-Aug-11 11:30N 52°47' W 130°13'918.6
2017-Aug-11 11:00N 52°55' W 130°20'917.9
2017-Aug-11 10:30N 53°03' W 130°27'918.3
2017-Aug-11 10:00N 53°11' W 130°34'1218.1
2017-Aug-11 09:22N 53°22' W 130°44'2115.5
2017-Aug-11 08:00N 53°42' W 130°54'178 8.5 330 / 131013.810.8 12.011.414.3
2017-Aug-10 11:00N 56°18' W 133°24'3517.5 330 / 51015.310.8 12.011.115.7
2017-Aug-10 09:00N 56°00' W 134°18'15217.5 300 / 191014.810.8 12.711.415.6
2017-Aug-10 00:15N 58°18' W 136°17'519.1
2017-Aug-10 00:00N 58°19' W 136°09'815.2
2017-Aug-09 23:30N 58°25' W 135°60'612.6
2017-Aug-09 23:00N 58°31' W 136°04'2156.4
2017-Aug-09 23:00N 58°30' W 136°00'1122.2 1016.610.8 15.7 8.213.3
2017-Aug-09 22:30N 58°40' W 136°09'510.0
2017-Aug-09 22:00N 58°42' W 136°18'1316.9 1017.010.8 14.2 8.814.0
2017-Aug-09 21:14N 58°51' W 136°35'311.9
2017-Aug-09 21:00N 58°48' W 136°36'4 0.8 310 / 51017.110.8 15.7 4.111.2
2017-Aug-09 16:19N 58°50' W 136°30'612.9
2017-Aug-09 15:52N 58°46' W 136°21'513.9
2017-Aug-09 15:30N 58°43' W 136°14'917.9
2017-Aug-09 15:00N 58°35' W 136°04'2147.2
2017-Aug-09 15:00N 58°36' W 136°00'817.1 340 / 51017.910.8 10.3 9.514.5
2017-Aug-09 14:30N 58°28' W 136°02'510.1
2017-Aug-09 14:00N 58°23' W 135°57'510.1
2017-Aug-09 13:28N 58°19' W 135°52'612.7
2017-Aug-09 13:00N 58°17' W 135°41'1313.1
2017-Aug-09 12:00N 58°12' W 135°18'1312.6 320 / 131017.210.8 12.710.914.5
2017-Aug-09 11:00N 58°12' W 134°54'1212.4 130 / 131017.410.8 13.2 9.816.0
2017-Aug-09 10:00N 58°24' W 135°00'1212.4 330 / 71017.510.8 13.912.116.4
2017-Aug-09 09:00N 58°36' W 135°06'12 0.5 060 / 121018.010.8 14.211.516.5
2017-Aug-08 11:00N 58°48' W 135°06'2612.9 170 / 121022.410.8 14.312.517.0
2017-Aug-08 09:00N 58°24' W 134°48'91 4.8 180 / 81021.810.8 15.412.315.9
2017-Aug-07 14:00N 56°54' W 134°18'3015.1 130 / 51019.410.8 12.311.015.3
2017-Aug-07 12:00N 56°24' W 134°24'1212.0 130 / 61018.810.8 12.211.115.3
2017-Aug-07 11:00N 56°12' W 134°24'3618.1 350 / 101018.610.8 12.511.715.3
2017-Aug-07 09:00N 55°36' W 134°18'   280 / 201019.310.8 12.411.515.3

Dump ship's entire track history